createdAt,value
2019-01-20T00:00:43.432Z,-4.90
2019-01-20T00:03:47.112Z,-4.90
2019-01-20T00:06:50.802Z,-4.80
2019-01-20T00:09:54.507Z,-4.90
2019-01-20T00:12:58.232Z,-4.90
2019-01-20T00:16:01.993Z,-4.90
2019-01-20T00:19:05.654Z,-5.00
2019-01-20T00:22:09.338Z,-4.90
2019-01-20T00:25:13.098Z,-5.00
2019-01-20T00:28:16.693Z,-5.00
2019-01-20T00:31:20.398Z,-5.00
2019-01-20T00:34:24.117Z,-5.00
2019-01-20T00:37:27.955Z,-5.00
2019-01-20T00:40:31.663Z,-4.90
2019-01-20T00:43:35.315Z,-5.00
2019-01-20T00:46:39.048Z,-5.00
2019-01-20T00:49:42.725Z,-5.00
2019-01-20T00:52:46.426Z,-4.90
2019-01-20T00:55:50.057Z,-4.90
2019-01-20T00:58:53.762Z,-4.80
2019-01-20T01:01:57.637Z,-4.80
2019-01-20T01:05:01.306Z,-4.80
2019-01-20T01:08:05.048Z,-4.80
2019-01-20T01:11:08.772Z,-4.80
2019-01-20T01:14:12.472Z,-4.70
2019-01-20T01:17:16.140Z,-4.70
2019-01-20T01:20:20.208Z,-4.70
2019-01-20T01:23:23.883Z,-4.70
2019-01-20T01:26:27.573Z,-4.80
2019-01-20T01:29:31.243Z,-4.80
2019-01-20T01:32:34.943Z,-4.80
2019-01-20T01:35:38.667Z,-4.80
2019-01-20T01:38:42.443Z,-4.90
2019-01-20T01:41:46.150Z,-4.90
2019-01-20T01:44:49.836Z,-4.80
2019-01-20T01:47:53.512Z,-4.80
2019-01-20T01:50:57.195Z,-4.80
2019-01-20T01:54:00.863Z,-4.90
2019-01-20T01:57:04.636Z,-4.90
2019-01-20T02:00:19.583Z,-4.90
2019-01-20T02:03:23.288Z,-4.80
2019-01-20T02:06:26.953Z,-4.80
2019-01-20T02:09:30.652Z,-4.80
2019-01-20T02:12:34.285Z,-4.80
2019-01-20T02:15:38.002Z,-5.00
2019-01-20T02:18:41.670Z,-5.00
2019-01-20T02:21:45.345Z,-4.90
2019-01-20T02:24:48.995Z,-4.80
2019-01-20T02:27:54.392Z,-4.60
2019-01-20T02:30:58.133Z,-4.60
2019-01-20T02:34:01.820Z,-4.60
2019-01-20T02:37:05.503Z,-4.70
2019-01-20T02:40:12.177Z,-4.70
2019-01-20T02:43:15.859Z,-4.70
2019-01-20T02:46:19.548Z,-4.80
2019-01-20T02:49:23.237Z,-4.80
2019-01-20T02:52:26.922Z,-4.90
2019-01-20T02:55:30.603Z,-4.90
2019-01-20T02:58:34.283Z,-4.90
2019-01-20T03:01:38.052Z,-5.00
2019-01-20T03:04:41.725Z,-5.20
2019-01-20T03:07:45.376Z,-5.60
2019-01-20T03:10:49.073Z,-5.70
2019-01-20T03:13:52.747Z,-5.60
2019-01-20T03:16:56.443Z,-5.60
2019-01-20T03:20:00.284Z,-5.50
2019-01-20T03:23:03.996Z,-5.40
2019-01-20T03:26:07.705Z,-5.40
2019-01-20T03:29:11.380Z,-5.50
2019-01-20T03:32:15.069Z,-6.00
2019-01-20T03:35:21.517Z,-6.20
2019-01-20T03:38:25.219Z,-6.30
2019-01-20T03:41:28.892Z,-6.20
2019-01-20T03:44:32.615Z,-6.40
2019-01-20T03:47:36.772Z,-6.40
2019-01-20T03:50:40.469Z,-6.30
2019-01-20T03:53:44.172Z,-6.20
2019-01-20T03:56:47.827Z,-6.20
2019-01-20T03:59:51.517Z,-6.30
2019-01-20T04:02:56.762Z,-6.30
2019-01-20T04:06:00.458Z,-6.20
2019-01-20T04:09:07.057Z,-6.30
2019-01-20T04:12:10.728Z,-6.30
2019-01-20T04:15:15.285Z,-6.10
2019-01-20T04:18:18.943Z,-6.30
2019-01-20T04:21:22.656Z,-6.40
2019-01-20T04:24:26.346Z,-6.30
2019-01-20T04:27:30.014Z,-6.40
2019-01-20T04:30:33.683Z,-6.30
2019-01-20T04:33:37.363Z,-6.30
2019-01-20T04:36:41.000Z,-6.40
2019-01-20T04:39:44.675Z,-6.40
2019-01-20T04:42:48.328Z,-6.30
2019-01-20T04:45:52.024Z,-6.20
2019-01-20T04:48:55.694Z,-6.20
2019-01-20T04:51:59.382Z,-6.30
2019-01-20T04:55:03.092Z,-6.30
2019-01-20T04:58:06.941Z,-6.40
2019-01-20T05:01:10.636Z,-6.50
2019-01-20T05:04:14.296Z,-6.40
2019-01-20T05:07:17.963Z,-6.40
2019-01-20T05:10:21.632Z,-6.40
2019-01-20T05:13:25.322Z,-6.30
2019-01-20T05:16:28.958Z,-6.20
2019-01-20T05:19:32.683Z,-6.20
2019-01-20T05:22:36.401Z,-6.20
2019-01-20T05:25:40.103Z,-6.10
2019-01-20T05:28:43.811Z,-6.00
2019-01-20T05:31:47.467Z,-5.80
2019-01-20T05:34:51.132Z,-5.90
2019-01-20T05:37:54.792Z,-5.70
2019-01-20T05:40:58.471Z,-5.60
2019-01-20T05:44:02.240Z,-5.50
2019-01-20T05:47:05.922Z,-5.60
2019-01-20T05:50:11.943Z,-5.50
2019-01-20T05:53:15.617Z,-5.40
2019-01-20T05:56:19.312Z,-5.30
2019-01-20T05:59:22.968Z,-5.20
2019-01-20T06:02:26.645Z,-5.10
2019-01-20T06:05:30.322Z,-5.00
2019-01-20T06:08:34.002Z,-5.00
2019-01-20T06:11:37.680Z,-4.90
2019-01-20T06:14:41.345Z,-4.90
2019-01-20T06:17:45.058Z,-4.80
2019-01-20T06:20:48.776Z,-4.80
2019-01-20T06:23:52.528Z,-4.90
2019-01-20T06:26:56.192Z,-4.80
2019-01-20T06:29:59.888Z,-4.80
2019-01-20T06:33:03.532Z,-4.70
2019-01-20T06:36:07.244Z,-4.70
2019-01-20T06:39:10.882Z,-4.60
2019-01-20T06:42:14.581Z,-4.50
2019-01-20T06:45:18.294Z,-4.50
2019-01-20T06:48:22.002Z,-4.50
2019-01-20T06:51:25.675Z,-4.40
2019-01-20T06:54:29.370Z,-4.30
2019-01-20T06:57:33.073Z,-4.30
2019-01-20T07:00:36.744Z,-4.20
2019-01-20T07:03:40.442Z,-4.30
2019-01-20T07:06:44.092Z,-4.30
2019-01-20T07:09:47.784Z,-4.30
2019-01-20T07:12:51.468Z,-4.20
2019-01-20T07:15:55.152Z,-4.20
2019-01-20T07:18:58.812Z,-4.20
2019-01-20T07:22:02.540Z,-4.10
2019-01-20T07:25:07.745Z,-4.10
2019-01-20T07:28:11.412Z,-4.00
2019-01-20T07:31:15.103Z,-4.00
2019-01-20T07:34:18.769Z,-4.00
2019-01-20T07:37:22.465Z,-3.90
2019-01-20T07:40:26.128Z,-3.90
2019-01-20T07:43:29.831Z,-4.00
2019-01-20T07:46:33.487Z,-3.90
2019-01-20T07:49:37.148Z,-3.90
2019-01-20T07:52:40.802Z,-3.80
2019-01-20T07:55:44.496Z,-3.70
2019-01-20T07:58:48.140Z,-3.70
2019-01-20T08:01:51.847Z,-3.70
2019-01-20T08:04:55.565Z,-3.70
2019-01-20T08:07:59.229Z,-3.60
2019-01-20T08:11:02.940Z,-3.60
2019-01-20T08:14:06.602Z,-3.60
2019-01-20T08:17:11.356Z,-3.50
2019-01-20T08:20:19.891Z,-3.40
2019-01-20T08:23:23.593Z,-3.30
2019-01-20T08:26:27.298Z,-3.30
2019-01-20T08:29:30.968Z,-3.20
2019-01-20T08:32:34.685Z,-3.10
2019-01-20T08:35:38.366Z,-3.20
2019-01-20T08:38:42.084Z,-3.10
2019-01-20T08:41:45.686Z,-3.00
2019-01-20T08:44:49.375Z,-2.90
2019-01-20T08:47:54.535Z,-2.90
2019-01-20T08:50:58.355Z,-2.90
2019-01-20T08:54:02.043Z,-2.90
2019-01-20T08:57:05.755Z,-2.90
2019-01-20T09:00:14.975Z,-3.00
2019-01-20T09:03:18.655Z,-2.80
2019-01-20T09:06:22.336Z,-2.80
2019-01-20T09:09:26.001Z,-2.80
2019-01-20T09:12:30.508Z,-2.80
2019-01-20T09:15:34.167Z,-2.70
2019-01-20T09:18:40.115Z,-2.70
2019-01-20T09:21:43.775Z,-2.70
2019-01-20T09:24:47.505Z,-2.70
2019-01-20T09:27:51.223Z,-2.80
2019-01-20T09:30:54.884Z,-2.70
2019-01-20T09:33:58.551Z,-2.50
2019-01-20T09:37:02.298Z,-2.50
2019-01-20T09:40:08.611Z,-2.70
2019-01-20T09:43:12.282Z,-2.50
2019-01-20T09:46:16.394Z,-2.40
2019-01-20T09:49:20.227Z,-2.20
2019-01-20T09:52:23.924Z,-2.10
2019-01-20T09:55:27.620Z,-2.10
2019-01-20T09:58:31.283Z,-2.00
2019-01-20T10:01:34.964Z,-1.80
2019-01-20T10:04:38.616Z,-1.50
2019-01-20T10:07:42.276Z,-1.80
2019-01-20T10:10:45.942Z,-1.70
2019-01-20T10:13:54.769Z,-1.30
2019-01-20T10:16:54.976Z,-1.10
2019-01-20T10:19:58.667Z,-0.90
2019-01-20T10:23:02.394Z,-1.00
2019-01-20T10:26:06.069Z,-1.00
2019-01-20T10:29:09.720Z,-0.70
2019-01-20T10:32:13.407Z,-0.90
2019-01-20T10:35:17.787Z,-0.80
2019-01-20T10:38:21.443Z,-0.90
2019-01-20T10:41:25.180Z,-0.80
2019-01-20T10:44:28.793Z,-0.60
2019-01-20T10:47:32.502Z,-0.80
2019-01-20T10:50:36.165Z,-0.80
2019-01-20T10:53:39.875Z,-0.90
2019-01-20T10:56:43.578Z,-0.70
2019-01-20T10:59:47.251Z,-0.40
2019-01-20T11:02:50.932Z,-0.70
2019-01-20T11:05:54.602Z,-1.00
2019-01-20T11:08:58.323Z,-1.10
2019-01-20T11:12:01.980Z,-1.00
2019-01-20T11:15:08.900Z,-1.00
2019-01-20T11:18:12.528Z,-1.10
2019-01-20T11:21:16.203Z,-0.90
2019-01-20T11:24:19.940Z,-0.80
2019-01-20T11:27:23.636Z,-0.60
2019-01-20T11:30:27.318Z,-0.80
2019-01-20T11:33:31.028Z,-0.90
2019-01-20T11:36:34.733Z,-0.90
2019-01-20T11:39:38.461Z,-0.70
2019-01-20T11:42:42.266Z,-0.80
2019-01-20T11:45:46.023Z,-0.70
2019-01-20T11:48:49.723Z,-0.70
2019-01-20T11:51:53.373Z,-0.80
2019-01-20T11:55:00.787Z,-0.80
2019-01-20T11:58:04.591Z,-0.80
2019-01-20T12:01:08.251Z,-0.90
2019-01-20T12:04:11.947Z,-0.80
2019-01-20T12:07:15.628Z,-0.60
2019-01-20T12:10:19.318Z,-0.50
2019-01-20T12:13:24.570Z,-0.70
2019-01-20T12:16:28.234Z,-0.90
2019-01-20T12:19:31.878Z,-0.80
2019-01-20T12:22:35.620Z,-0.50
2019-01-20T12:29:11.380Z,-0.30
2019-01-20T12:32:15.085Z,-0.30
2019-01-20T12:35:18.781Z,-0.40
2019-01-20T12:38:22.472Z,-0.50
2019-01-20T12:41:26.193Z,-0.40
2019-01-20T12:44:31.543Z,-0.40
2019-01-20T12:47:35.238Z,-0.30
2019-01-20T12:50:38.903Z,-0.30
2019-01-20T12:53:42.604Z,-0.30
2019-01-20T12:56:47.346Z,-0.30
2019-01-20T12:59:51.368Z,-0.20
2019-01-20T13:02:55.102Z,-0.20
2019-01-20T13:05:58.763Z,-0.20
2019-01-20T13:09:02.469Z,-0.20
2019-01-20T13:12:06.136Z,-0.30
2019-01-20T13:15:12.240Z,-0.30
2019-01-20T13:18:15.884Z,-0.30
2019-01-20T13:21:19.621Z,-0.40
2019-01-20T13:24:23.302Z,-0.30
2019-01-20T13:27:27.017Z,-0.30
2019-01-20T13:30:30.727Z,-0.30
2019-01-20T13:33:34.416Z,-0.50
2019-01-20T13:36:38.102Z,-0.50
2019-01-20T13:39:41.808Z,-0.50
2019-01-20T13:42:45.538Z,-0.40
2019-01-20T13:45:49.233Z,-0.40
2019-01-20T13:48:52.934Z,-0.50
2019-01-20T13:51:56.619Z,-0.50
2019-01-20T13:55:00.323Z,-0.50
2019-01-20T13:58:03.993Z,-0.60
2019-01-20T14:01:07.696Z,-0.70
2019-01-20T14:04:11.400Z,-0.70
2019-01-20T14:07:15.062Z,-0.70
2019-01-20T14:10:23.443Z,-0.70
2019-01-20T14:13:27.127Z,-0.70
2019-01-20T14:16:30.812Z,-0.70
2019-01-20T14:19:34.494Z,-0.70
2019-01-20T14:22:38.168Z,-0.70
2019-01-20T14:25:41.872Z,-0.70
2019-01-20T14:28:45.544Z,-0.80
2019-01-20T14:31:49.280Z,-0.80
2019-01-20T14:34:52.943Z,-0.90
2019-01-20T14:37:56.698Z,-0.80
2019-01-20T14:41:00.343Z,-0.80
2019-01-20T14:44:04.112Z,-0.80
2019-01-20T14:47:07.772Z,-0.80
2019-01-20T14:50:14.653Z,-0.90
2019-01-20T14:53:18.388Z,-0.90
2019-01-20T14:56:22.046Z,-0.90
2019-01-20T14:59:25.734Z,-1.00
2019-01-20T15:02:29.400Z,-1.00
2019-01-20T15:05:33.095Z,-1.00
2019-01-20T15:08:36.783Z,-1.00
2019-01-20T15:11:40.443Z,-1.10
2019-01-20T15:14:44.132Z,-1.10
2019-01-20T15:17:47.818Z,-1.10
2019-01-20T15:20:51.482Z,-1.20
2019-01-20T15:23:55.168Z,-1.20
2019-01-20T15:26:58.837Z,-1.20
2019-01-20T15:30:02.486Z,-1.20
2019-01-20T15:33:06.381Z,-1.30
2019-01-20T15:36:10.058Z,-1.30
2019-01-20T15:39:13.758Z,-1.30
2019-01-20T15:42:17.432Z,-1.40
2019-01-20T15:45:22.515Z,-1.60
2019-01-20T15:48:26.184Z,-1.60
2019-01-20T15:51:29.893Z,-1.60
2019-01-20T15:54:33.584Z,-1.70
2019-01-20T15:57:37.233Z,-1.70
2019-01-20T16:00:40.954Z,-1.70
2019-01-20T16:03:44.716Z,-1.80
2019-01-20T16:06:48.408Z,-1.80
2019-01-20T16:09:52.066Z,-1.90
2019-01-20T16:12:55.743Z,-2.00
2019-01-20T16:15:59.406Z,-2.00
2019-01-20T16:19:03.109Z,-2.00
2019-01-20T16:22:06.834Z,-2.00
2019-01-20T16:25:19.073Z,-2.10
2019-01-20T16:28:22.789Z,-2.00
2019-01-20T16:31:26.437Z,-2.00
2019-01-20T16:34:30.139Z,-2.10
2019-01-20T16:37:33.822Z,-2.10
2019-01-20T16:40:37.521Z,-2.10
2019-01-20T16:43:41.190Z,-2.10
2019-01-20T16:46:45.487Z,-2.20
2019-01-20T16:49:49.136Z,-2.10
2019-01-20T16:52:54.659Z,-2.20
2019-01-20T16:55:58.500Z,-2.30
2019-01-20T16:59:02.257Z,-2.30
2019-01-20T17:02:06.036Z,-2.30
2019-01-20T17:05:11.256Z,-2.40
2019-01-20T17:08:16.022Z,-2.40
2019-01-20T17:11:19.744Z,-2.60
2019-01-20T17:14:23.404Z,-2.60
2019-01-20T17:17:27.132Z,-2.60
2019-01-20T17:20:30.815Z,-2.70
2019-01-20T17:23:34.495Z,-2.70
2019-01-20T17:26:38.195Z,-2.90
2019-01-20T17:29:41.891Z,-3.00
2019-01-20T17:32:45.552Z,-3.20
2019-01-20T17:35:49.251Z,-3.40
2019-01-20T17:38:54.069Z,-3.70
2019-01-20T17:41:57.728Z,-3.80
2019-01-20T17:45:01.436Z,-3.90
2019-01-20T17:48:05.073Z,-4.10
2019-01-20T17:51:11.573Z,-4.20
2019-01-20T17:54:15.260Z,-4.40
2019-01-20T17:57:18.952Z,-4.60
2019-01-20T18:00:26.631Z,-4.80
2019-01-20T18:03:30.335Z,-4.90
2019-01-20T18:06:34.096Z,-4.90
2019-01-20T18:09:39.368Z,-4.90
2019-01-20T18:12:43.082Z,-4.90
2019-01-20T18:15:54.061Z,-5.00
2019-01-20T18:18:52.140Z,-5.20
2019-01-20T18:21:55.823Z,-5.30
2019-01-20T18:24:59.522Z,-5.40
2019-01-20T18:28:03.202Z,-5.50
2019-01-20T18:31:06.903Z,-5.40
2019-01-20T18:34:10.713Z,-5.40
2019-01-20T18:37:14.405Z,-5.50
2019-01-20T18:40:20.541Z,-5.50
2019-01-20T18:43:24.362Z,-5.50
2019-01-20T18:46:28.003Z,-5.70
2019-01-20T18:49:31.663Z,-5.70
2019-01-20T18:52:35.380Z,-5.90
2019-01-20T18:55:39.113Z,-5.90
2019-01-20T18:58:42.802Z,-6.00
2019-01-20T19:01:46.617Z,-6.10
2019-01-20T19:04:50.262Z,-6.10
2019-01-20T19:07:55.511Z,-6.30
2019-01-20T19:10:59.483Z,-6.40
2019-01-20T19:14:03.148Z,-6.50
2019-01-20T19:17:06.844Z,-6.40
2019-01-20T19:20:16.101Z,-6.40
2019-01-20T19:23:19.825Z,-6.50
2019-01-20T19:26:23.484Z,-6.50
2019-01-20T19:29:27.214Z,-6.60
2019-01-20T19:32:31.669Z,-6.60
2019-01-20T19:35:35.383Z,-6.70
2019-01-20T19:38:39.012Z,-6.70
2019-01-20T19:41:42.744Z,-6.80
2019-01-20T19:44:46.382Z,-6.80
2019-01-20T19:47:50.076Z,-6.80
2019-01-20T19:50:53.783Z,-6.90
2019-01-20T19:53:57.495Z,-6.90
2019-01-20T19:57:01.223Z,-7.00
2019-01-20T20:00:08.253Z,-7.00
2019-01-20T20:03:11.990Z,-7.00
2019-01-20T20:06:15.653Z,-6.90
2019-01-20T20:09:20.130Z,-6.90
2019-01-20T20:12:23.797Z,-6.70
2019-01-20T20:15:28.014Z,-6.80
2019-01-20T20:18:31.704Z,-6.80
2019-01-20T20:21:35.406Z,-6.80
2019-01-20T20:24:39.082Z,-6.80
2019-01-20T20:27:42.811Z,-6.80
2019-01-20T20:30:46.636Z,-6.90
2019-01-20T20:33:50.307Z,-7.00
2019-01-20T20:36:55.435Z,-7.00
2019-01-20T20:39:59.098Z,-6.90
2019-01-20T20:43:02.765Z,-6.90
2019-01-20T20:46:06.412Z,-6.90
2019-01-20T20:49:10.096Z,-7.00
2019-01-20T20:52:15.361Z,-7.00
2019-01-20T20:55:20.876Z,-7.00
2019-01-20T20:58:24.556Z,-7.10
2019-01-20T21:01:28.243Z,-7.20
2019-01-20T21:04:32.027Z,-7.30
2019-01-20T21:07:35.733Z,-7.30
2019-01-20T21:10:39.390Z,-7.30
2019-01-20T21:13:43.136Z,-7.40
2019-01-20T21:16:46.853Z,-7.60
2019-01-20T21:19:51.626Z,-7.40
2019-01-20T21:22:55.284Z,-7.50
2019-01-20T21:25:58.978Z,-7.50
2019-01-20T21:29:02.627Z,-7.50
2019-01-20T21:32:06.319Z,-7.50
2019-01-20T21:35:10.012Z,-7.60
2019-01-20T21:38:13.687Z,-7.50
2019-01-20T21:41:17.379Z,-7.60
2019-01-20T21:44:21.073Z,-7.60
2019-01-20T21:47:24.762Z,-7.50
2019-01-20T21:50:30.470Z,-7.60
2019-01-20T21:53:34.152Z,-7.50
2019-01-20T21:56:37.855Z,-7.70
2019-01-20T21:59:41.520Z,-7.70
2019-01-20T22:02:45.209Z,-7.70
2019-01-20T22:05:48.911Z,-7.50
2019-01-20T22:08:52.660Z,-7.40
2019-01-20T22:11:56.382Z,-7.40
2019-01-20T22:15:00.091Z,-7.50
2019-01-20T22:18:03.901Z,-7.60
2019-01-20T22:21:07.613Z,-7.60
2019-01-20T22:24:11.361Z,-7.60
2019-01-20T22:27:15.038Z,-7.60
2019-01-20T22:30:23.505Z,-7.80
2019-01-20T22:33:27.223Z,-7.80
2019-01-20T22:36:30.897Z,-7.90
2019-01-20T22:39:34.592Z,-7.80
2019-01-20T22:42:38.308Z,-7.70
2019-01-20T22:45:41.996Z,-7.70
2019-01-20T22:48:45.645Z,-7.90
2019-01-20T22:51:49.328Z,-8.00
2019-01-20T22:54:52.980Z,-8.00
2019-01-20T22:57:56.677Z,-8.10
2019-01-20T23:01:00.518Z,-8.10
2019-01-20T23:04:04.255Z,-8.10
2019-01-20T23:07:08.049Z,-8.20
2019-01-20T23:10:11.724Z,-8.20
2019-01-20T23:13:15.507Z,-8.20
2019-01-20T23:16:19.175Z,-8.30
2019-01-20T23:19:22.863Z,-8.30
2019-01-20T23:22:26.575Z,-8.40
2019-01-20T23:25:30.225Z,-8.30
2019-01-20T23:28:33.964Z,-8.50
2019-01-20T23:31:37.626Z,-8.50
2019-01-20T23:34:41.327Z,-8.60
2019-01-20T23:37:44.974Z,-8.70
2019-01-20T23:40:48.687Z,-8.80
2019-01-20T23:43:52.396Z,-8.60
2019-01-20T23:46:56.163Z,-8.50
2019-01-20T23:49:59.871Z,-8.50
2019-01-20T23:53:03.519Z,-8.50
2019-01-20T23:56:07.212Z,-8.40
2019-01-20T23:59:10.864Z,-8.40
